Station Historical Data
Daily Summary for April 16, 2019 Units:  Both    English   Metric
« Previous Day
Next Day »
Daily Weekly Monthly Yearly Custom
  High: Low: Average:
Temperature: TemperatureC °F /  -17.8 °C 8.2 °F /  -13.2 °C 14 °F /  -10 °C
Dew Point: DewpointC °F /  -17.8 °C 4.9 °F /  -15.1 °C 7.5 °F /  -13.6 °C
Humidity: Humidity % 39 % 68 %
Wind Speed: WindSpeedKMH mph /  0 km/h - 4.1 mph /  6.6 km/h
Wind Gust: WindSpeedGustKMH mph /  0 km/h - -
Wind:- - SE
Pressure: PressurehPa in /  0 hPa 1016.3 in /  34411.9 hPa -
Precipitation: 0.0 in /  0 mm    
Historical Graphs
 
 
Tabular Data for April 16, 2019
Time Temperature Dew Point Pressure Wind Wind Speed Wind Gust Humidity Rainfall Rate (Hourly) solar Conditions
TemperatureC °F /  -17.8 °C DewpointC °F /  -17.8 °C PressurehPa in /  0 hPa Calm     Humidity % HourlyPrecipMM in /  0 mm SolarRadiationWatts/m^2 W/m2 Conditions
00:03 11.1 °F /  -11.6 °C 8.1 °F /  -13.3 °C 1018.3 in /  34479.6 hPa Calm     82 % 0.0 in /  0 mm 0.00 W/m2 CLR
00:09 10.9 °F /  -11.7 °C 8.0 °F /  -13.3 °C 1018.4 in /  34483 hPa Calm     82 % 0.0 in /  0 mm 0.00 W/m2 CLR
00:14 10.8 °F /  -11.8 °C 7.9 °F /  -13.4 °C 1018.4 in /  34483 hPa Calm     82 % 0.0 in /  0 mm 0.00 W/m2 CLR
00:18 10.8 °F /  -11.8 °C 8.0 °F /  -13.3 °C 1018.5 in /  34486.4 hPa SE 3.2 mph /  5.1 km/h 1.0 mph /  1.6 km/h 83 % 0.0 in /  0 mm 0.00 W/m2 CLR
00:23 10.8 °F /  -11.8 °C 7.8 °F /  -13.4 °C 1018.5 in /  34486.4 hPa NNW 1.9 mph /  3.1 km/h   82 % 0.0 in /  0 mm 0.00 W/m2 CLR
00:29 10.8 °F /  -11.8 °C 7.8 °F /  -13.4 °C 1018.6 in /  34489.8 hPa Calm     82 % 0.0 in /  0 mm 0.00 W/m2 CLR
00:34 10.8 °F /  -11.8 °C 7.8 °F /  -13.4 °C 1018.6 in /  34489.8 hPa Calm     82 % 0.0 in /  0 mm 0.00 W/m2 CLR
00:38 10.8 °F /  -11.8 °C 7.8 °F /  -13.4 °C 1018.7 in /  34493.2 hPa Calm     82 % 0.0 in /  0 mm 0.00 W/m2 CLR
00:44 10.8 °F /  -11.8 °C 7.8 °F /  -13.4 °C 1018.6 in /  34489.8 hPa Calm     82 % 0.0 in /  0 mm 0.00 W/m2 CLR
00:49 10.8 °F /  -11.8 °C 7.8 °F /  -13.4 °C 1018.6 in /  34489.8 hPa Calm     82 % 0.0 in /  0 mm 0.00 W/m2 CLR
00:53 10.7 °F /  -11.8 °C 7.8 °F /  -13.4 °C 1018.6 in /  34489.8 hPa Calm     82 % 0.0 in /  0 mm 0.00 W/m2 CLR
00:59 10.7 °F /  -11.8 °C 7.8 °F /  -13.4 °C 1018.6 in /  34489.8 hPa Calm     82 % 0.0 in /  0 mm 0.00 W/m2 CLR
01:04 10.7 °F /  -11.8 °C 7.9 °F /  -13.4 °C 1018.6 in /  34489.8 hPa Calm     83 % 0.0 in /  0 mm 0.00 W/m2 CLR
01:09 10.7 °F /  -11.8 °C 7.9 °F /  -13.4 °C 1018.6 in /  34489.8 hPa Calm     83 % 0.0 in /  0 mm 0.00 W/m2 CLR
01:14 10.6 °F /  -11.9 °C 7.8 °F /  -13.4 °C 1018.6 in /  34489.8 hPa Calm     83 % 0.0 in /  0 mm 0.00 W/m2 CLR
01:19 10.4 °F /  -12 °C 7.7 °F /  -13.5 °C 1018.5 in /  34486.4 hPa Calm     83 % 0.0 in /  0 mm 0.00 W/m2 CLR
01:23 10.4 °F /  -12 °C 7.6 °F /  -13.6 °C 1018.5 in /  34486.4 hPa Calm     83 % 0.0 in /  0 mm 0.00 W/m2 CLR
01:28 10.3 °F /  -12.1 °C 7.6 °F /  -13.6 °C 1018.5 in /  34486.4 hPa Calm     83 % 0.0 in /  0 mm 0.00 W/m2 CLR
01:33 10.3 °F /  -12.1 °C 7.5 °F /  -13.6 °C 1018.6 in /  34489.8 hPa Calm     83 % 0.0 in /  0 mm 0.00 W/m2 CLR
01:38 10.3 °F /  -12.1 °C 7.7 °F /  -13.5 °C 1018.5 in /  34486.4 hPa Calm     84 % 0.0 in /  0 mm 0.00 W/m2 CLR
01:44 10.2 °F /  -12.1 °C 7.6 °F /  -13.6 °C 1018.6 in /  34489.8 hPa Calm     84 % 0.0 in /  0 mm 0.00 W/m2 CLR
01:48 10.2 °F /  -12.1 °C 7.6 °F /  -13.6 °C 1018.6 in /  34489.8 hPa Calm     84 % 0.0 in /  0 mm 0.00 W/m2 CLR
01:53 10.1 °F /  -12.2 °C 7.6 °F /  -13.6 °C 1018.6 in /  34489.8 hPa NNW 1.6 mph /  2.6 km/h   84 % 0.0 in /  0 mm 0.00 W/m2 CLR
01:59 10.1 °F /  -12.2 °C 7.7 °F /  -13.5 °C 1018.4 in /  34483 hPa NNW 1.9 mph /  3.1 km/h 0.2 mph /  0.3 km/h 85 % 0.0 in /  0 mm 0.00 W/m2 CLR
02:03 10.1 °F /  -12.2 °C 7.7 °F /  -13.5 °C 1018.4 in /  34483 hPa Calm     85 % 0.0 in /  0 mm 0.00 W/m2 CLR
02:08 10.1 °F /  -12.2 °C 7.7 °F /  -13.5 °C 1018.4 in /  34483 hPa Calm     85 % 0.0 in /  0 mm 0.00 W/m2 CLR
02:14 10.1 °F /  -12.2 °C 7.5 °F /  -13.6 °C 1018.3 in /  34479.6 hPa Calm     84 % 0.0 in /  0 mm 0.00 W/m2 CLR
02:18 10.1 °F /  -12.2 °C 7.7 °F /  -13.5 °C 1018.3 in /  34479.6 hPa Calm     85 % 0.0 in /  0 mm 0.00 W/m2 CLR
02:23 10.1 °F /  -12.2 °C 7.7 °F /  -13.5 °C 1018.2 in /  34476.3 hPa Calm     85 % 0.0 in /  0 mm 0.00 W/m2 CLR
02:29 10.1 °F /  -12.2 °C 7.7 °F /  -13.5 °C 1018.2 in /  34476.3 hPa Calm     85 % 0.0 in /  0 mm 0.00 W/m2 CLR
02:34 10.1 °F /  -12.2 °C 7.7 °F /  -13.5 °C 1018.1 in /  34472.9 hPa Calm     85 % 0.0 in /  0 mm 0.00 W/m2 CLR
02:38 10.1 °F /  -12.2 °C 7.7 °F /  -13.5 °C 1018.0 in /  34469.5 hPa Calm     85 % 0.0 in /  0 mm 0.00 W/m2 CLR
02:43 10.1 °F /  -12.2 °C 7.7 °F /  -13.5 °C 1018.0 in /  34469.5 hPa Calm     85 % 0.0 in /  0 mm 0.00 W/m2 CLR
02:49 10.1 °F /  -12.2 °C 7.7 °F /  -13.5 °C 1018.0 in /  34469.5 hPa Calm     85 % 0.0 in /  0 mm 0.00 W/m2 CLR
02:53 10.1 °F /  -12.2 °C 7.7 °F /  -13.5 °C 1018.0 in /  34469.5 hPa Calm     85 % 0.0 in /  0 mm 0.00 W/m2 CLR
02:58 10.0 °F /  -12.2 °C 7.6 °F /  -13.6 °C 1018.0 in /  34469.5 hPa Calm     85 % 0.0 in /  0 mm 0.00 W/m2 CLR
03:04 10.0 °F /  -12.2 °C 7.6 °F /  -13.6 °C 1017.9 in /  34466.1 hPa Calm     85 % 0.0 in /  0 mm 0.00 W/m2 CLR
03:09 9.9 °F /  -12.3 °C 7.6 °F /  -13.6 °C 1017.9 in /  34466.1 hPa Calm     85 % 0.0 in /  0 mm 0.00 W/m2 CLR
03:13 9.9 °F /  -12.3 °C 7.5 °F /  -13.6 °C 1017.9 in /  34466.1 hPa Calm     85 % 0.0 in /  0 mm 0.00 W/m2 CLR
03:19 9.9 °F /  -12.3 °C 7.5 °F /  -13.6 °C 1017.9 in /  34466.1 hPa Calm     85 % 0.0 in /  0 mm 0.00 W/m2 CLR
03:24 9.8 °F /  -12.3 °C 7.4 °F /  -13.7 °C 1017.8 in /  34462.7 hPa Calm     85 % 0.0 in /  0 mm 0.00 W/m2 CLR
03:28 9.8 °F /  -12.3 °C 7.6 °F /  -13.6 °C 1017.9 in /  34466.1 hPa Calm     86 % 0.0 in /  0 mm 0.00 W/m2 CLR
03:34 9.7 °F /  -12.4 °C 7.5 °F /  -13.6 °C 1017.8 in /  34462.7 hPa NNW 3.7 mph /  6 km/h 1.4 mph /  2.3 km/h 86 % 0.0 in /  0 mm 0.00 W/m2 CLR
03:39 9.7 °F /  -12.4 °C 7.4 °F /  -13.7 °C 1017.8 in /  34462.7 hPa NE 3.7 mph /  6 km/h 1.8 mph /  2.9 km/h 86 % 0.0 in /  0 mm 0.00 W/m2 CLR
03:44 9.7 °F /  -12.4 °C 7.6 °F /  -13.6 °C 1017.8 in /  34462.7 hPa NE 3.7 mph /  6 km/h 1.8 mph /  2.9 km/h 87 % 0.0 in /  0 mm 0.00 W/m2 CLR
03:48 9.6 °F /  -12.4 °C 7.6 °F /  -13.6 °C 1017.8 in /  34462.7 hPa NE 3.7 mph /  6 km/h 1.4 mph /  2.3 km/h 87 % 0.0 in /  0 mm 0.00 W/m2 CLR
03:53 9.6 °F /  -12.4 °C 7.5 °F /  -13.6 °C 1017.8 in /  34462.7 hPa Calm     87 % 0.0 in /  0 mm 0.00 W/m2 CLR
03:58 9.5 °F /  -12.5 °C 7.4 °F /  -13.7 °C 1017.8 in /  34462.7 hPa Calm     87 % 0.0 in /  0 mm 0.00 W/m2 CLR
04:03 9.4 °F /  -12.6 °C 7.4 °F /  -13.7 °C 1017.8 in /  34462.7 hPa NE 1.9 mph /  3.1 km/h 0.3 mph /  0.5 km/h 87 % 0.0 in /  0 mm 0.00 W/m2 CLR
04:08 9.4 °F /  -12.6 °C 7.3 °F /  -13.7 °C 1017.7 in /  34459.3 hPa NE 3.7 mph /  6 km/h 2.4 mph /  3.9 km/h 87 % 0.0 in /  0 mm 0.00 W/m2 CLR
04:13 9.3 °F /  -12.6 °C 7.4 °F /  -13.7 °C 1017.7 in /  34459.3 hPa NE 1.9 mph /  3.1 km/h 1.0 mph /  1.6 km/h 88 % 0.0 in /  0 mm 0.00 W/m2 CLR
04:18 9.3 °F /  -12.6 °C 7.4 °F /  -13.7 °C 1017.6 in /  34455.9 hPa NE 1.9 mph /  3.1 km/h 0.5 mph /  0.8 km/h 88 % 0.0 in /  0 mm 0.00 W/m2 CLR
04:23 9.2 °F /  -12.7 °C 7.3 °F /  -13.7 °C 1017.6 in /  34455.9 hPa NE 3.7 mph /  6 km/h 2.7 mph /  4.3 km/h 88 % 0.0 in /  0 mm 0.00 W/m2 CLR
04:28 9.1 °F /  -12.7 °C 7.2 °F /  -13.8 °C 1017.6 in /  34455.9 hPa NE 3.7 mph /  6 km/h 2.3 mph /  3.7 km/h 88 % 0.0 in /  0 mm 0.00 W/m2 CLR
04:34 9.0 °F /  -12.8 °C 7.1 °F /  -13.8 °C 1017.6 in /  34455.9 hPa NE 3.7 mph /  6 km/h 1.9 mph /  3.1 km/h 88 % 0.0 in /  0 mm 0.00 W/m2 CLR
04:38 8.9 °F /  -12.8 °C 7.0 °F /  -13.9 °C 1017.7 in /  34459.3 hPa NE 1.9 mph /  3.1 km/h 0.2 mph /  0.3 km/h 88 % 0.0 in /  0 mm 0.00 W/m2 CLR
04:43 8.8 °F /  -12.9 °C 6.9 °F /  -13.9 °C 1017.7 in /  34459.3 hPa NE 1.6 mph /  2.6 km/h   88 % 0.0 in /  0 mm 0.00 W/m2 CLR
04:49 8.7 °F /  -12.9 °C 6.8 °F /  -14 °C 1017.6 in /  34455.9 hPa NE 1.9 mph /  3.1 km/h 0.5 mph /  0.8 km/h 88 % 0.0 in /  0 mm 0.00 W/m2 CLR
04:53 8.7 °F /  -12.9 °C 6.8 °F /  -14 °C 1017.7 in /  34459.3 hPa NE 3.2 mph /  5.1 km/h 1.6 mph /  2.6 km/h 88 % 0.0 in /  0 mm 0.00 W/m2 CLR
04:58 8.6 °F /  -13 °C 6.9 °F /  -13.9 °C 1017.7 in /  34459.3 hPa NE 3.7 mph /  6 km/h 1.8 mph /  2.9 km/h 89 % 0.0 in /  0 mm 0.00 W/m2 CLR
05:04 8.6 °F /  -13 °C 6.8 °F /  -14 °C 1017.7 in /  34459.3 hPa NE 3.7 mph /  6 km/h 2.1 mph /  3.4 km/h 89 % 0.0 in /  0 mm 0.00 W/m2 CLR
05:09 8.5 °F /  -13.1 °C 6.8 °F /  -14 °C 1017.8 in /  34462.7 hPa NE 1.9 mph /  3.1 km/h 0.6 mph /  1 km/h 89 % 0.0 in /  0 mm 0.00 W/m2 CLR
05:13 8.5 °F /  -13.1 °C 6.8 °F /  -14 °C 1017.8 in /  34462.7 hPa Calm     89 % 0.0 in /  0 mm 0.00 W/m2 CLR
05:19 8.4 °F /  -13.1 °C 6.9 °F /  -13.9 °C 1017.9 in /  34466.1 hPa NE 1.9 mph /  3.1 km/h 1.0 mph /  1.6 km/h 90 % 0.0 in /  0 mm 0.00 W/m2 CLR
05:24 8.4 °F /  -13.1 °C 6.9 °F /  -13.9 °C 1017.9 in /  34466.1 hPa NE 1.9 mph /  3.1 km/h 1.6 mph /  2.6 km/h 90 % 0.0 in /  0 mm 0.00 W/m2 CLR
05:28 8.4 °F /  -13.1 °C 6.9 °F /  -13.9 °C 1017.9 in /  34466.1 hPa NE 3.7 mph /  6 km/h 2.3 mph /  3.7 km/h 90 % 0.0 in /  0 mm 0.00 W/m2 CLR
05:33 8.4 °F /  -13.1 °C 6.9 °F /  -13.9 °C 1017.9 in /  34466.1 hPa NE 3.2 mph /  5.1 km/h 1.9 mph /  3.1 km/h 90 % 0.0 in /  0 mm 0.00 W/m2 CLR
05:39 8.4 °F /  -13.1 °C 7.1 °F /  -13.8 °C 1017.9 in /  34466.1 hPa NE 3.7 mph /  6 km/h 1.1 mph /  1.8 km/h 91 % 0.0 in /  0 mm 0.00 W/m2 CLR
05:44 8.4 °F /  -13.1 °C 7.1 °F /  -13.8 °C 1017.9 in /  34466.1 hPa NE 3.7 mph /  6 km/h 1.8 mph /  2.9 km/h 91 % 0.0 in /  0 mm 0.00 W/m2 CLR
05:48 8.4 °F /  -13.1 °C 7.1 °F /  -13.8 °C 1017.8 in /  34462.7 hPa NE 1.9 mph /  3.1 km/h   91 % 0.0 in /  0 mm 0.00 W/m2 CLR
05:54 8.4 °F /  -13.1 °C 7.1 °F /  -13.8 °C 1017.8 in /  34462.7 hPa NE 1.9 mph /  3.1 km/h 0.5 mph /  0.8 km/h 91 % 0.0 in /  0 mm 0.00 W/m2 CLR
05:59 8.4 °F /  -13.1 °C 7.1 °F /  -13.8 °C 1017.9 in /  34466.1 hPa Calm     91 % 0.0 in /  0 mm 0.00 W/m2 CLR
06:03 8.4 °F /  -13.1 °C 7.0 °F /  -13.9 °C 1017.8 in /  34462.7 hPa Calm     91 % 0.0 in /  0 mm 0.00 W/m2 CLR
06:09 8.4 °F /  -13.1 °C 7.0 °F /  -13.9 °C 1017.8 in /  34462.7 hPa Calm     91 % 0.0 in /  0 mm 0.00 W/m2 CLR
06:14 8.3 °F /  -13.2 °C 6.9 °F /  -13.9 °C 1017.8 in /  34462.7 hPa Calm     91 % 0.0 in /  0 mm 0.00 W/m2 CLR
06:19 8.3 °F /  -13.2 °C 6.9 °F /  -13.9 °C 1017.7 in /  34459.3 hPa NE 1.9 mph /  3.1 km/h 0.2 mph /  0.3 km/h 91 % 0.0 in /  0 mm 0.00 W/m2 CLR
06:24 8.3 °F /  -13.2 °C 7.1 °F /  -13.8 °C 1017.8 in /  34462.7 hPa Calm     92 % 0.0 in /  0 mm 0.00 W/m2 CLR
06:28 8.2 °F /  -13.2 °C 7.0 °F /  -13.9 °C 1017.8 in /  34462.7 hPa Calm     92 % 0.0 in /  0 mm 5.00 W/m2 CLR
06:33 8.2 °F /  -13.2 °C 6.8 °F /  -14 °C 1017.8 in /  34462.7 hPa Calm     91 % 0.0 in /  0 mm 7.00 W/m2 CLR
06:38 8.2 °F /  -13.2 °C 6.9 °F /  -13.9 °C 1017.8 in /  34462.7 hPa NE 1.6 mph /  2.6 km/h 0.2 mph /  0.3 km/h 92 % 0.0 in /  0 mm 9.00 W/m2 CLR
06:43 8.2 °F /  -13.2 °C 7.0 °F /  -13.9 °C 1017.8 in /  34462.7 hPa Calm     92 % 0.0 in /  0 mm 11.00 W/m2 CLR
06:48 8.2 °F /  -13.2 °C 7.0 °F /  -13.9 °C 1017.8 in /  34462.7 hPa Calm     92 % 0.0 in /  0 mm 18.00 W/m2 FEW
06:53 8.2 °F /  -13.2 °C 7.0 °F /  -13.9 °C 1017.8 in /  34462.7 hPa Calm     92 % 0.0 in /  0 mm 23.00 W/m2 FEW
06:58 8.2 °F /  -13.2 °C 7.0 °F /  -13.9 °C 1017.8 in /  34462.7 hPa Calm     92 % 0.0 in /  0 mm 28.00 W/m2 FEW
07:03 8.3 °F /  -13.2 °C 7.1 °F /  -13.8 °C 1017.9 in /  34466.1 hPa Calm     92 % 0.0 in /  0 mm 33.00 W/m2 FEW
07:08 8.3 °F /  -13.2 °C 7.1 °F /  -13.8 °C 1017.9 in /  34466.1 hPa Calm     92 % 0.0 in /  0 mm 37.00 W/m2 SCT
07:13 8.3 °F /  -13.2 °C 7.1 °F /  -13.8 °C 1017.9 in /  34466.1 hPa Calm     92 % 0.0 in /  0 mm 42.00 W/m2 SCT
07:18 8.3 °F /  -13.2 °C 7.2 °F /  -13.8 °C 1017.9 in /  34466.1 hPa Calm     93 % 0.0 in /  0 mm 47.00 W/m2 SCT
07:24 8.3 °F /  -13.2 °C 7.3 °F /  -13.7 °C 1018.0 in /  34469.5 hPa Calm     93 % 0.0 in /  0 mm 53.00 W/m2 SCT
07:28 8.4 °F /  -13.1 °C 7.3 °F /  -13.7 °C 1018.0 in /  34469.5 hPa Calm     93 % 0.0 in /  0 mm 58.00 W/m2 SCT
07:33 8.4 °F /  -13.1 °C 7.4 °F /  -13.7 °C 1018.1 in /  34472.9 hPa Calm     93 % 0.0 in /  0 mm 69.00 W/m2 SCT
07:39 8.6 °F /  -13 °C 7.5 °F /  -13.6 °C 1018.2 in /  34476.3 hPa Calm     93 % 0.0 in /  0 mm 69.00 W/m2 SCT
07:43 8.7 °F /  -12.9 °C 7.6 °F /  -13.6 °C 1018.3 in /  34479.6 hPa Calm     93 % 0.0 in /  0 mm 81.00 W/m2 SCT
07:48 8.8 °F /  -12.9 °C 7.7 °F /  -13.5 °C 1018.2 in /  34476.3 hPa Calm     93 % 0.0 in /  0 mm 86.00 W/m2 SCT
07:54 8.8 °F /  -12.9 °C 7.6 °F /  -13.6 °C 1018.3 in /  34479.6 hPa Calm     92 % 0.0 in /  0 mm 102.00 W/m2 SCT
07:59 8.6 °F /  -13 °C 7.4 °F /  -13.7 °C 1018.4 in /  34483 hPa North 6.4 mph /  10.3 km/h 4.7 mph /  7.6 km/h 92 % 0.0 in /  0 mm 130.00 W/m2 SCT
08:03 8.4 °F /  -13.1 °C 7.4 °F /  -13.7 °C 1018.4 in /  34483 hPa North 4.8 mph /  7.7 km/h 3.2 mph /  5.1 km/h 93 % 0.0 in /  0 mm 146.00 W/m2 SCT
08:09 8.6 °F /  -13 °C 7.5 °F /  -13.6 °C 1018.4 in /  34483 hPa North 4.8 mph /  7.7 km/h 3.2 mph /  5.1 km/h 93 % 0.0 in /  0 mm 162.00 W/m2 FEW
08:14 8.8 °F /  -12.9 °C 7.7 °F /  -13.5 °C 1018.5 in /  34486.4 hPa North 6.4 mph /  10.3 km/h 4.3 mph /  6.9 km/h 93 % 0.0 in /  0 mm 174.00 W/m2 FEW
08:18 9.0 °F /  -12.8 °C 7.9 °F /  -13.4 °C 1018.5 in /  34486.4 hPa North 6.4 mph /  10.3 km/h 4.7 mph /  7.6 km/h 93 % 0.0 in /  0 mm 181.00 W/m2 FEW
08:24 9.1 °F /  -12.7 °C 8.1 °F /  -13.3 °C 1018.5 in /  34486.4 hPa North 6.4 mph /  10.3 km/h 4.8 mph /  7.7 km/h 93 % 0.0 in /  0 mm 216.00 W/m2 FEW
08:29 9.3 °F /  -12.6 °C 8.1 °F /  -13.3 °C 1018.5 in /  34486.4 hPa North 5.6 mph /  9 km/h 3.5 mph /  5.6 km/h 92 % 0.0 in /  0 mm 237.00 W/m2 FEW
08:34 9.9 °F /  -12.3 °C 8.7 °F /  -12.9 °C 1018.5 in /  34486.4 hPa NE 5.6 mph /  9 km/h 2.9 mph /  4.7 km/h 92 % 0.0 in /  0 mm 237.00 W/m2 FEW
08:39 10.2 °F /  -12.1 °C 8.6 °F /  -13 °C 1018.5 in /  34486.4 hPa ENE 6.4 mph /  10.3 km/h 3.4 mph /  5.5 km/h 90 % 0.0 in /  0 mm 220.00 W/m2 FEW
08:44 10.3 °F /  -12.1 °C 8.4 °F /  -13.1 °C 1018.5 in /  34486.4 hPa ENE 5.6 mph /  9 km/h 2.4 mph /  3.9 km/h 88 % 0.0 in /  0 mm 230.00 W/m2 FEW
08:49 10.6 °F /  -11.9 °C 8.7 °F /  -12.9 °C 1018.4 in /  34483 hPa ENE 3.7 mph /  6 km/h 2.7 mph /  4.3 km/h 88 % 0.0 in /  0 mm 211.00 W/m2 FEW
08:53 10.8 °F /  -11.8 °C 8.7 °F /  -12.9 °C 1018.4 in /  34483 hPa NE 5.6 mph /  9 km/h 3.2 mph /  5.1 km/h 87 % 0.0 in /  0 mm 204.00 W/m2 SCT
08:58 10.9 °F /  -11.7 °C 8.9 °F /  -12.8 °C 1018.3 in /  34479.6 hPa ENE 3.7 mph /  6 km/h 1.6 mph /  2.6 km/h 87 % 0.0 in /  0 mm 190.00 W/m2 SCT
09:03 11.1 °F /  -11.6 °C 8.6 °F /  -13 °C 1018.4 in /  34483 hPa ENE 5.6 mph /  9 km/h 3.9 mph /  6.3 km/h 85 % 0.0 in /  0 mm 192.00 W/m2 SCT
09:08 11.2 °F /  -11.6 °C 8.7 °F /  -12.9 °C 1018.4 in /  34483 hPa ENE 5.6 mph /  9 km/h 3.1 mph /  5 km/h 85 % 0.0 in /  0 mm 197.00 W/m2 SCT
09:13 11.2 °F /  -11.6 °C 8.7 °F /  -12.9 °C 1018.4 in /  34483 hPa East 5.6 mph /  9 km/h 3.1 mph /  5 km/h 85 % 0.0 in /  0 mm 213.00 W/m2 SCT
09:18 11.3 °F /  -11.5 °C 8.7 °F /  -12.9 °C 1018.4 in /  34483 hPa ENE 5.6 mph /  9 km/h 1.9 mph /  3.1 km/h 84 % 0.0 in /  0 mm 271.00 W/m2 SCT
09:23 11.6 °F /  -11.3 °C 9.1 °F /  -12.7 °C 1018.4 in /  34483 hPa East 5.6 mph /  9 km/h 2.4 mph /  3.9 km/h 85 % 0.0 in /  0 mm 301.00 W/m2 SCT
09:28 11.7 °F /  -11.3 °C 9.1 °F /  -12.7 °C 1018.5 in /  34486.4 hPa East 1.9 mph /  3.1 km/h 1.0 mph /  1.6 km/h 84 % 0.0 in /  0 mm 283.00 W/m2 SCT
09:33 11.9 °F /  -11.2 °C 9.3 °F /  -12.6 °C 1018.5 in /  34486.4 hPa East 5.6 mph /  9 km/h 3.2 mph /  5.1 km/h 84 % 0.0 in /  0 mm 316.00 W/m2 SCT
09:38 11.9 °F /  -11.2 °C 9.2 °F /  -12.7 °C 1018.5 in /  34486.4 hPa NE 5.6 mph /  9 km/h 3.4 mph /  5.5 km/h 83 % 0.0 in /  0 mm 357.00 W/m2 SCT
09:44 12.2 °F /  -11 °C 9.4 °F /  -12.6 °C 1018.6 in /  34489.8 hPa ENE 5.6 mph /  9 km/h 4.0 mph /  6.4 km/h 83 % 0.0 in /  0 mm 415.00 W/m2 FEW
09:48 12.4 °F /  -10.9 °C 9.3 °F /  -12.6 °C 1018.6 in /  34489.8 hPa East 8.0 mph /  12.9 km/h 4.7 mph /  7.6 km/h 81 % 0.0 in /  0 mm 396.00 W/m2 FEW
09:53 12.6 °F /  -10.8 °C 9.2 °F /  -12.7 °C 1018.4 in /  34483 hPa East 5.6 mph /  9 km/h 4.0 mph /  6.4 km/h 80 % 0.0 in /  0 mm 425.00 W/m2 FEW
09:59 12.7 °F /  -10.7 °C 9.2 °F /  -12.7 °C 1018.5 in /  34486.4 hPa East 3.7 mph /  6 km/h 2.1 mph /  3.4 km/h 79 % 0.0 in /  0 mm 380.00 W/m2 FEW
10:03 12.9 °F /  -10.6 °C 9.3 °F /  -12.6 °C 1018.5 in /  34486.4 hPa North 6.4 mph /  10.3 km/h 4.5 mph /  7.2 km/h 79 % 0.0 in /  0 mm 434.00 W/m2 FEW
10:08 12.8 °F /  -10.7 °C 9.1 °F /  -12.7 °C 1018.6 in /  34489.8 hPa NNE 7.4 mph /  11.9 km/h 5.6 mph /  9 km/h 78 % 0.0 in /  0 mm 476.00 W/m2 FEW
10:14 13.1 °F /  -10.5 °C 9.3 °F /  -12.6 °C 1018.6 in /  34489.8 hPa NNE 6.4 mph /  10.3 km/h 4.5 mph /  7.2 km/h 78 % 0.0 in /  0 mm 496.00 W/m2 FEW
10:19 13.3 °F /  -10.4 °C 9.2 °F /  -12.7 °C 1018.6 in /  34489.8 hPa NNE 5.6 mph /  9 km/h 2.7 mph /  4.3 km/h 76 % 0.0 in /  0 mm 431.00 W/m2 FEW
10:23 13.4 °F /  -10.3 °C 9.4 °F /  -12.6 °C 1018.6 in /  34489.8 hPa ESE 4.8 mph /  7.7 km/h 2.1 mph /  3.4 km/h 77 % 0.0 in /  0 mm 503.00 W/m2 FEW
10:29 13.9 °F /  -10.1 °C 9.6 °F /  -12.4 °C 1018.6 in /  34489.8 hPa East 5.6 mph /  9 km/h 3.5 mph /  5.6 km/h 75 % 0.0 in /  0 mm 492.00 W/m2 FEW
10:34 13.8 °F /  -10.1 °C 8.9 °F /  -12.8 °C 1018.6 in /  34489.8 hPa SE 5.6 mph /  9 km/h 3.5 mph /  5.6 km/h 72 % 0.0 in /  0 mm 464.00 W/m2 FEW
10:38 13.9 °F /  -10.1 °C 9.2 °F /  -12.7 °C 1018.6 in /  34489.8 hPa ESE 7.4 mph /  11.9 km/h 5.3 mph /  8.5 km/h 73 % 0.0 in /  0 mm 487.00 W/m2 FEW
10:44 14.3 °F /  -9.8 °C 9.1 °F /  -12.7 °C 1018.6 in /  34489.8 hPa SE 6.4 mph /  10.3 km/h 4.8 mph /  7.7 km/h 71 % 0.0 in /  0 mm 534.00 W/m2 FEW
10:49 14.4 °F /  -9.8 °C 9.2 °F /  -12.7 °C 1018.6 in /  34489.8 hPa SE 1.9 mph /  3.1 km/h 0.2 mph /  0.3 km/h 71 % 0.0 in /  0 mm 582.00 W/m2 FEW
10:54 14.9 °F /  -9.5 °C 9.1 °F /  -12.7 °C 1018.6 in /  34489.8 hPa ENE 8.0 mph /  12.9 km/h 5.8 mph /  9.3 km/h 68 % 0.0 in /  0 mm 540.00 W/m2 FEW
10:59 15.0 °F /  -9.4 °C 9.1 °F /  -12.7 °C 1018.7 in /  34493.2 hPa ESE 5.6 mph /  9 km/h 2.4 mph /  3.9 km/h 68 % 0.0 in /  0 mm 408.00 W/m2 FEW
11:04 14.8 °F /  -9.6 °C 8.9 °F /  -12.8 °C 1018.6 in /  34489.8 hPa ESE 6.4 mph /  10.3 km/h 4.2 mph /  6.8 km/h 68 % 0.0 in /  0 mm 404.00 W/m2 SCT
11:09 14.9 °F /  -9.5 °C 9.1 °F /  -12.7 °C 1018.6 in /  34489.8 hPa ESE 5.6 mph /  9 km/h 2.3 mph /  3.7 km/h 68 % 0.0 in /  0 mm 557.00 W/m2 SCT
11:13 15.2 °F /  -9.3 °C 9.1 °F /  -12.7 °C 1018.5 in /  34486.4 hPa SE 4.8 mph /  7.7 km/h 2.1 mph /  3.4 km/h 67 % 0.0 in /  0 mm 573.00 W/m2 FEW
11:19 15.5 °F /  -9.2 °C 9.2 °F /  -12.7 °C 1018.5 in /  34486.4 hPa NE 5.6 mph /  9 km/h 4.0 mph /  6.4 km/h 66 % 0.0 in /  0 mm 534.00 W/m2 FEW
11:24 15.5 °F /  -9.2 °C 8.9 °F /  -12.8 °C 1018.5 in /  34486.4 hPa SE 3.7 mph /  6 km/h 2.4 mph /  3.9 km/h 65 % 0.0 in /  0 mm 497.00 W/m2 FEW
11:28 15.8 °F /  -9 °C 9.2 °F /  -12.7 °C 1018.4 in /  34483 hPa SE 5.6 mph /  9 km/h 3.2 mph /  5.1 km/h 65 % 0.0 in /  0 mm 538.00 W/m2 FEW
11:33 15.7 °F /  -9.1 °C 9.2 °F /  -12.7 °C 1018.4 in /  34483 hPa ENE 5.6 mph /  9 km/h 3.7 mph /  6 km/h 65 % 0.0 in /  0 mm 589.00 W/m2 FEW
11:38 16.1 °F /  -8.8 °C 9.2 °F /  -12.7 °C 1018.4 in /  34483 hPa SE 5.6 mph /  9 km/h 1.3 mph /  2.1 km/h 64 % 0.0 in /  0 mm 694.00 W/m2 FEW
11:43 16.3 °F /  -8.7 °C 9.9 °F /  -12.3 °C 1018.4 in /  34483 hPa SE 6.4 mph /  10.3 km/h 4.0 mph /  6.4 km/h 66 % 0.0 in /  0 mm 680.00 W/m2 CLR
11:48 16.3 °F /  -8.7 °C 9.5 °F /  -12.5 °C 1018.4 in /  34483 hPa ESE 13.0 mph /  20.9 km/h 9.0 mph /  14.5 km/h 64 % 0.0 in /  0 mm 712.00 W/m2 CLR
11:53 16.5 °F /  -8.6 °C 8.9 °F /  -12.8 °C 1018.4 in /  34483 hPa ENE 8.0 mph /  12.9 km/h 4.7 mph /  7.6 km/h 61 % 0.0 in /  0 mm 749.00 W/m2 CLR
11:58 16.3 °F /  -8.7 °C 8.7 °F /  -12.9 °C 1018.4 in /  34483 hPa ESE 8.0 mph /  12.9 km/h 5.5 mph /  8.9 km/h 61 % 0.0 in /  0 mm 761.00 W/m2 CLR
12:03 16.1 °F /  -8.8 °C 8.8 °F /  -12.9 °C 1018.3 in /  34479.6 hPa SE 11.3 mph /  18.2 km/h 7.1 mph /  11.4 km/h 62 % 0.0 in /  0 mm 675.00 W/m2 CLR
12:08 16.3 °F /  -8.7 °C 9.1 °F /  -12.7 °C 1018.3 in /  34479.6 hPa NE 8.0 mph /  12.9 km/h 4.8 mph /  7.7 km/h 62 % 0.0 in /  0 mm 589.00 W/m2 FEW
12:13 16.7 °F /  -8.5 °C 8.6 °F /  -13 °C 1018.2 in /  34476.3 hPa SSW 5.6 mph /  9 km/h 2.4 mph /  3.9 km/h 59 % 0.0 in /  0 mm 747.00 W/m2 FEW
12:19 16.7 °F /  -8.5 °C 8.6 °F /  -13 °C 1018.2 in /  34476.3 hPa SSE 9.7 mph /  15.6 km/h 6.1 mph /  9.8 km/h 59 % 0.0 in /  0 mm 724.00 W/m2 CLR
12:23 16.6 °F /  -8.6 °C 8.8 °F /  -12.9 °C 1018.2 in /  34476.3 hPa SE 5.6 mph /  9 km/h 2.1 mph /  3.4 km/h 60 % 0.0 in /  0 mm 763.00 W/m2 CLR
12:28 17.1 °F /  -8.3 °C 8.8 °F /  -12.9 °C 1018.2 in /  34476.3 hPa East 9.3 mph /  15 km/h 2.4 mph /  3.9 km/h 58 % 0.0 in /  0 mm 647.00 W/m2 CLR
12:34 16.8 °F /  -8.4 °C 8.7 °F /  -12.9 °C 1018.2 in /  34476.3 hPa North 6.4 mph /  10.3 km/h 4.0 mph /  6.4 km/h 59 % 0.0 in /  0 mm 772.00 W/m2 CLR
12:38 16.8 °F /  -8.4 °C 9.2 °F /  -12.7 °C 1018.2 in /  34476.3 hPa North 8.0 mph /  12.9 km/h 5.5 mph /  8.9 km/h 61 % 0.0 in /  0 mm 786.00 W/m2 CLR
12:43 16.8 °F /  -8.4 °C 9.0 °F /  -12.8 °C 1018.1 in /  34472.9 hPa North 6.4 mph /  10.3 km/h 3.5 mph /  5.6 km/h 60 % 0.0 in /  0 mm 738.00 W/m2 CLR
12:49 17.4 °F /  -8.1 °C 8.8 °F /  -12.9 °C 1018.1 in /  34472.9 hPa ESE 11.3 mph /  18.2 km/h 5.6 mph /  9 km/h 57 % 0.0 in /  0 mm 756.00 W/m2 CLR
12:54 17.4 °F /  -8.1 °C 8.3 °F /  -13.2 °C 1018.1 in /  34472.9 hPa SE 9.7 mph /  15.6 km/h 6.8 mph /  10.9 km/h 55 % 0.0 in /  0 mm 689.00 W/m2 CLR
12:58 17.1 °F /  -8.3 °C 8.3 °F /  -13.2 °C 1018.0 in /  34469.5 hPa SSE 7.4 mph /  11.9 km/h 4.3 mph /  6.9 km/h 56 % 0.0 in /  0 mm 742.00 W/m2 CLR
13:04 17.3 °F /  -8.2 °C 8.7 °F /  -12.9 °C 1018.0 in /  34469.5 hPa ESE 6.4 mph /  10.3 km/h 3.4 mph /  5.5 km/h 57 % 0.0 in /  0 mm 703.00 W/m2 CLR
13:09 17.4 °F /  -8.1 °C 8.3 °F /  -13.2 °C 1018.0 in /  34469.5 hPa SSE 11.3 mph /  18.2 km/h 7.9 mph /  12.7 km/h 55 % 0.0 in /  0 mm 729.00 W/m2 CLR
13:13 17.4 °F /  -8.1 °C 7.4 °F /  -13.7 °C 1017.9 in /  34466.1 hPa SE 14.8 mph /  23.8 km/h 8.2 mph /  13.2 km/h 52 % 0.0 in /  0 mm 789.00 W/m2 CLR
13:19 17.6 °F /  -8 °C 7.3 °F /  -13.7 °C 1017.9 in /  34466.1 hPa East 11.3 mph /  18.2 km/h 6.9 mph /  11.1 km/h 51 % 0.0 in /  0 mm 759.00 W/m2 CLR
13:24 17.7 °F /  -7.9 °C 7.4 °F /  -13.7 °C 1017.8 in /  34462.7 hPa NW 4.8 mph /  7.7 km/h 2.7 mph /  4.3 km/h 51 % 0.0 in /  0 mm 770.00 W/m2 CLR
13:29 17.6 °F /  -8 °C 7.3 °F /  -13.7 °C 1017.7 in /  34459.3 hPa SSE 3.7 mph /  6 km/h 1.0 mph /  1.6 km/h 51 % 0.0 in /  0 mm 777.00 W/m2 CLR
13:34 17.6 °F /  -8 °C 7.6 °F /  -13.6 °C 1017.7 in /  34459.3 hPa SSE 9.7 mph /  15.6 km/h 7.2 mph /  11.6 km/h 52 % 0.0 in /  0 mm 759.00 W/m2 CLR
13:39 17.9 °F /  -7.8 °C 7.7 °F /  -13.5 °C 1017.6 in /  34455.9 hPa South 9.7 mph /  15.6 km/h 7.4 mph /  11.9 km/h 51 % 0.0 in /  0 mm 782.00 W/m2 CLR
13:44 17.9 °F /  -7.8 °C 6.7 °F /  -14.1 °C 1017.6 in /  34455.9 hPa South 5.6 mph /  9 km/h 3.4 mph /  5.5 km/h 48 % 0.0 in /  0 mm 849.00 W/m2 CLR
13:48 17.5 °F /  -8.1 °C 7.2 °F /  -13.8 °C 1017.4 in /  34449.2 hPa South 13.0 mph /  20.9 km/h 6.1 mph /  9.8 km/h 51 % 0.0 in /  0 mm 587.00 W/m2 CLR
13:54 18.1 °F /  -7.7 °C 8.1 °F /  -13.3 °C 1017.4 in /  34449.2 hPa ESE 5.6 mph /  9 km/h 3.2 mph /  5.1 km/h 52 % 0.0 in /  0 mm 844.00 W/m2 CLR
13:59 18.3 °F /  -7.6 °C 7.7 °F /  -13.5 °C 1017.4 in /  34449.2 hPa ESE 13.0 mph /  20.9 km/h 4.3 mph /  6.9 km/h 50 % 0.0 in /  0 mm 735.00 W/m2 CLR
14:03 18.1 °F /  -7.7 °C 7.5 °F /  -13.6 °C 1017.3 in /  34445.8 hPa ESE 6.4 mph /  10.3 km/h 3.9 mph /  6.3 km/h 50 % 0.0 in /  0 mm 816.00 W/m2 CLR
14:08 18.3 °F /  -7.6 °C 8.3 °F /  -13.2 °C 1017.3 in /  34445.8 hPa East 5.6 mph /  9 km/h 2.6 mph /  4.2 km/h 52 % 0.0 in /  0 mm 791.00 W/m2 CLR
14:13 18.8 °F /  -7.3 °C 7.8 °F /  -13.4 °C 1017.3 in /  34445.8 hPa SE 11.1 mph /  17.9 km/h 6.1 mph /  9.8 km/h 49 % 0.0 in /  0 mm 744.00 W/m2 CLR
14:18 18.4 °F /  -7.6 °C 7.2 °F /  -13.8 °C 1017.4 in /  34449.2 hPa SE 14.8 mph /  23.8 km/h 11.6 mph /  18.7 km/h 48 % 0.0 in /  0 mm 754.00 W/m2 CLR
14:23 18.5 °F /  -7.5 °C 6.7 °F /  -14.1 °C 1017.4 in /  34449.2 hPa SE 13.0 mph /  20.9 km/h 8.8 mph /  14.2 km/h 46 % 0.0 in /  0 mm 731.00 W/m2 CLR
14:28 18.1 °F /  -7.7 °C 6.3 °F /  -14.3 °C 1017.4 in /  34449.2 hPa SE 6.4 mph /  10.3 km/h 5.3 mph /  8.5 km/h 46 % 0.0 in /  0 mm 712.00 W/m2 CLR
14:33 18.0 °F /  -7.8 °C 5.9 °F /  -14.5 °C 1017.5 in /  34452.6 hPa SE 3.7 mph /  6 km/h 1.9 mph /  3.1 km/h 45 % 0.0 in /  0 mm 775.00 W/m2 CLR
14:38 18.2 °F /  -7.7 °C 6.1 °F /  -14.4 °C 1017.2 in /  34442.4 hPa SSE 6.4 mph /  10.3 km/h 4.3 mph /  6.9 km/h 45 % 0.0 in /  0 mm 773.00 W/m2 CLR
14:43 18.4 °F /  -7.6 °C 6.6 °F /  -14.1 °C 1017.3 in /  34445.8 hPa South 3.7 mph /  6 km/h 0.2 mph /  0.3 km/h 46 % 0.0 in /  0 mm 761.00 W/m2 CLR
14:48 18.9 °F /  -7.3 °C 7.0 °F /  -13.9 °C 1017.2 in /  34442.4 hPa ENE 9.7 mph /  15.6 km/h 6.8 mph /  10.9 km/h 46 % 0.0 in /  0 mm 721.00 W/m2 CLR
14:54 18.9 °F /  -7.3 °C 6.7 °F /  -14.1 °C 1017.3 in /  34445.8 hPa ENE 13.0 mph /  20.9 km/h 6.6 mph /  10.6 km/h 45 % 0.0 in /  0 mm 733.00 W/m2 CLR
14:58 18.7 °F /  -7.4 °C 7.1 °F /  -13.8 °C 1017.2 in /  34442.4 hPa ESE 5.6 mph /  9 km/h 3.5 mph /  5.6 km/h 47 % 0.0 in /  0 mm 788.00 W/m2 CLR
15:03 18.7 °F /  -7.4 °C 6.6 °F /  -14.1 °C 1017.1 in /  34439 hPa North 4.8 mph /  7.7 km/h 2.1 mph /  3.4 km/h 45 % 0.0 in /  0 mm 761.00 W/m2 CLR
15:09 18.9 °F /  -7.3 °C 6.7 °F /  -14.1 °C 1017.2 in /  34442.4 hPa NE 11.3 mph /  18.2 km/h 7.1 mph /  11.4 km/h 45 % 0.0 in /  0 mm 749.00 W/m2 CLR
15:13 19.1 °F /  -7.2 °C 6.2 °F /  -14.3 °C 1017.2 in /  34442.4 hPa NNE 5.6 mph /  9 km/h 2.4 mph /  3.9 km/h 43 % 0.0 in /  0 mm 691.00 W/m2 CLR
15:18 18.8 °F /  -7.3 °C 5.6 °F /  -14.7 °C 1017.1 in /  34439 hPa NNE 9.7 mph /  15.6 km/h 5.5 mph /  8.9 km/h 42 % 0.0 in /  0 mm 673.00 W/m2 CLR
15:24 18.7 °F /  -7.4 °C 6.6 °F /  -14.1 °C 1017.1 in /  34439 hPa East 8.0 mph /  12.9 km/h 5.5 mph /  8.9 km/h 45 % 0.0 in /  0 mm 649.00 W/m2 CLR
15:29 18.8 °F /  -7.3 °C 6.9 °F /  -13.9 °C 1017.1 in /  34439 hPa North 5.6 mph /  9 km/h 4.7 mph /  7.6 km/h 46 % 0.0 in /  0 mm 657.00 W/m2 CLR
15:33 19.1 °F /  -7.2 °C 6.8 °F /  -14 °C 1017.0 in /  34435.6 hPa NE 5.6 mph /  9 km/h 3.2 mph /  5.1 km/h 45 % 0.0 in /  0 mm 691.00 W/m2 CLR
15:39 19.5 °F /  -6.9 °C 6.9 °F /  -13.9 °C 1016.9 in /  34432.2 hPa East 5.6 mph /  9 km/h 1.4 mph /  2.3 km/h 44 % 0.0 in /  0 mm 675.00 W/m2 CLR
15:44 19.1 °F /  -7.2 °C 7.5 °F /  -13.6 °C 1017.0 in /  34435.6 hPa NNE 6.4 mph /  10.3 km/h 4.7 mph /  7.6 km/h 47 % 0.0 in /  0 mm 677.00 W/m2 CLR
15:48 19.2 °F /  -7.1 °C 6.3 °F /  -14.3 °C 1016.9 in /  34432.2 hPa NNE 9.7 mph /  15.6 km/h 6.1 mph /  9.8 km/h 43 % 0.0 in /  0 mm 656.00 W/m2 CLR
15:54 19.2 °F /  -7.1 °C 6.9 °F /  -13.9 °C 1017.1 in /  34439 hPa North 9.3 mph /  15 km/h 5.3 mph /  8.5 km/h 45 % 0.0 in /  0 mm 552.00 W/m2 CLR
15:59 19.0 °F /  -7.2 °C 6.8 °F /  -14 °C 1017.0 in /  34435.6 hPa NNW 6.4 mph /  10.3 km/h 6.1 mph /  9.8 km/h 45 % 0.0 in /  0 mm 552.00 W/m2 CLR
16:03 18.7 °F /  -7.4 °C 6.2 °F /  -14.3 °C 1016.9 in /  34432.2 hPa North 8.0 mph /  12.9 km/h 6.9 mph /  11.1 km/h 44 % 0.0 in /  0 mm 629.00 W/m2 CLR
16:09 18.6 °F /  -7.4 °C 5.7 °F /  -14.6 °C 1016.8 in /  34428.8 hPa NNW 6.4 mph /  10.3 km/h 5.6 mph /  9 km/h 43 % 0.0 in /  0 mm 566.00 W/m2 CLR
16:14 19.1 °F /  -7.2 °C 6.2 °F /  -14.3 °C 1016.7 in /  34425.5 hPa ENE 14.5 mph /  23.3 km/h 8.4 mph /  13.5 km/h 43 % 0.0 in /  0 mm 631.00 W/m2 CLR
16:19 19.2 °F /  -7.1 °C 5.6 °F /  -14.7 °C 1016.9 in /  34432.2 hPa North 6.4 mph /  10.3 km/h 5.0 mph /  8 km/h 41 % 0.0 in /  0 mm 598.00 W/m2 CLR
16:24 19.0 °F /  -7.2 °C 5.4 °F /  -14.8 °C 1016.8 in /  34428.8 hPa NE 9.7 mph /  15.6 km/h 6.8 mph /  10.9 km/h 41 % 0.0 in /  0 mm 599.00 W/m2 CLR
16:29 19.4 °F /  -7 °C 5.8 °F /  -14.6 °C 1016.7 in /  34425.5 hPa ENE 5.6 mph /  9 km/h 4.0 mph /  6.4 km/h 41 % 0.0 in /  0 mm 631.00 W/m2 CLR
16:34 19.2 °F /  -7.1 °C 5.7 °F /  -14.6 °C 1016.6 in /  34422.1 hPa ENE 5.6 mph /  9 km/h 2.7 mph /  4.3 km/h 41 % 0.0 in /  0 mm 679.00 W/m2 CLR
16:39 19.5 °F /  -6.9 °C 5.9 °F /  -14.5 °C 1016.5 in /  34418.7 hPa ENE 11.3 mph /  18.2 km/h 6.3 mph /  10.1 km/h 41 % 0.0 in /  0 mm 640.00 W/m2 CLR
16:43 19.7 °F /  -6.8 °C 5.3 °F /  -14.8 °C 1016.5 in /  34418.7 hPa ENE 7.4 mph /  11.9 km/h 4.0 mph /  6.4 km/h 39 % 0.0 in /  0 mm 610.00 W/m2 CLR
16:48 19.4 °F /  -7 °C 5.1 °F /  -14.9 °C 1016.3 in /  34411.9 hPa North 5.6 mph /  9 km/h 3.4 mph /  5.5 km/h 39 % 0.0 in /  0 mm 529.00 W/m2 CLR
16:53 19.2 °F /  -7.1 °C 5.2 °F /  -14.9 °C 1016.5 in /  34418.7 hPa West 6.4 mph /  10.3 km/h 5.0 mph /  8 km/h 40 % 0.0 in /  0 mm 519.00 W/m2 CLR
16:58 19.4 °F /  -7 °C 5.4 °F /  -14.8 °C 1016.5 in /  34418.7 hPa NW 8.0 mph /  12.9 km/h 5.6 mph /  9 km/h 40 % 0.0 in /  0 mm 489.00 W/m2 CLR
17:03 19.3 °F /  -7.1 °C 5.7 °F /  -14.6 °C 1016.6 in /  34422.1 hPa NNE 3.7 mph /  6 km/h 0.8 mph /  1.3 km/h 41 % 0.0 in /  0 mm 482.00 W/m2 CLR
17:08 19.5 °F /  -6.9 °C 5.2 °F /  -14.9 °C 1016.7 in /  34425.5 hPa ESE 8.0 mph /  12.9 km/h 5.0 mph /  8 km/h 39 % 0.0 in /  0 mm 476.00 W/m2 CLR
17:13 19.4 °F /  -7 °C 5.1 °F /  -14.9 °C 1016.7 in /  34425.5 hPa SE 6.4 mph /  10.3 km/h 3.9 mph /  6.3 km/h 39 % 0.0 in /  0 mm 403.00 W/m2 CLR
17:18 19.2 °F /  -7.1 °C 5.2 °F /  -14.9 °C 1016.7 in /  34425.5 hPa SE 5.6 mph /  9 km/h 1.8 mph /  2.9 km/h 40 % 0.0 in /  0 mm 373.00 W/m2 CLR
17:23 19.2 °F /  -7.1 °C 5.2 °F /  -14.9 °C 1016.7 in /  34425.5 hPa SE 6.4 mph /  10.3 km/h 3.4 mph /  5.5 km/h 40 % 0.0 in /  0 mm 360.00 W/m2 CLR
17:29 19.2 °F /  -7.1 °C 4.9 °F /  -15.1 °C 1016.7 in /  34425.5 hPa ENE 5.6 mph /  9 km/h 3.2 mph /  5.1 km/h 39 % 0.0 in /  0 mm 323.00 W/m2 CLR
17:33 19.1 °F /  -7.2 °C 5.5 °F /  -14.7 °C 1016.7 in /  34425.5 hPa NE 1.9 mph /  3.1 km/h 0.2 mph /  0.3 km/h 41 % 0.0 in /  0 mm 279.00 W/m2 FEW
17:38 19.4 °F /  -7 °C 5.4 °F /  -14.8 °C 1016.7 in /  34425.5 hPa NE 1.9 mph /  3.1 km/h 0.8 mph /  1.3 km/h 40 % 0.0 in /  0 mm 255.00 W/m2 FEW
17:44 19.3 °F /  -7.1 °C 5.7 °F /  -14.6 °C 1016.7 in /  34425.5 hPa ESE 11.3 mph /  18.2 km/h 6.0 mph /  9.7 km/h 41 % 0.0 in /  0 mm 216.00 W/m2 SCT
17:48 19.2 °F /  -7.1 °C 5.6 °F /  -14.7 °C 1016.8 in /  34428.8 hPa ESE 6.4 mph /  10.3 km/h 5.3 mph /  8.5 km/h 41 % 0.0 in /  0 mm 207.00 W/m2 SCT
17:53 18.9 °F /  -7.3 °C 5.1 °F /  -14.9 °C 1016.7 in /  34425.5 hPa ESE 6.4 mph /  10.3 km/h 3.9 mph /  6.3 km/h 40 % 0.0 in /  0 mm 165.00 W/m2 SCT
17:59 18.8 °F /  -7.3 °C 5.2 °F /  -14.9 °C 1016.7 in /  34425.5 hPa East 3.7 mph /  6 km/h 1.6 mph /  2.6 km/h 41 % 0.0 in /  0 mm 197.00 W/m2 SCT
18:04 18.8 °F /  -7.3 °C 6.3 °F /  -14.3 °C 1016.7 in /  34425.5 hPa East 6.4 mph /  10.3 km/h 4.7 mph /  7.6 km/h 44 % 0.0 in /  0 mm 195.00 W/m2 SCT
18:08 18.7 °F /  -7.4 °C 5.6 °F /  -14.7 °C 1016.9 in /  34432.2 hPa East 7.4 mph /  11.9 km/h 4.0 mph /  6.4 km/h 42 % 0.0 in /  0 mm 185.00 W/m2 FEW
18:14 18.7 °F /  -7.4 °C 5.8 °F /  -14.6 °C 1016.9 in /  34432.2 hPa East 3.2 mph /  5.1 km/h 1.4 mph /  2.3 km/h 43 % 0.0 in /  0 mm 188.00 W/m2 FEW
18:19 18.7 °F /  -7.4 °C 5.8 °F /  -14.6 °C 1016.9 in /  34432.2 hPa East 5.6 mph /  9 km/h 3.5 mph /  5.6 km/h 43 % 0.0 in /  0 mm 130.00 W/m2 FEW
18:23 18.6 °F /  -7.4 °C 5.8 °F /  -14.6 °C 1016.9 in /  34432.2 hPa ENE 6.4 mph /  10.3 km/h 4.7 mph /  7.6 km/h 43 % 0.0 in /  0 mm 123.00 W/m2 SCT
18:29 18.6 °F /  -7.4 °C 5.7 °F /  -14.6 °C 1016.9 in /  34432.2 hPa ENE 3.7 mph /  6 km/h 1.9 mph /  3.1 km/h 43 % 0.0 in /  0 mm 116.00 W/m2 SCT
18:34 18.6 °F /  -7.4 °C 5.8 °F /  -14.6 °C 1017.1 in /  34439 hPa ENE 5.6 mph /  9 km/h 2.7 mph /  4.3 km/h 43 % 0.0 in /  0 mm 109.00 W/m2 SCT
18:38 18.6 °F /  -7.4 °C 6.1 °F /  -14.4 °C 1017.0 in /  34435.6 hPa ENE 3.7 mph /  6 km/h 2.1 mph /  3.4 km/h 44 % 0.0 in /  0 mm 104.00 W/m2 SCT
18:44 18.6 °F /  -7.4 °C 6.1 °F /  -14.4 °C 1017.0 in /  34435.6 hPa ENE 1.9 mph /  3.1 km/h 0.8 mph /  1.3 km/h 44 % 0.0 in /  0 mm 100.00 W/m2 SCT
18:49 18.6 °F /  -7.4 °C 6.4 °F /  -14.2 °C 1017.0 in /  34435.6 hPa ENE 1.9 mph /  3.1 km/h 0.5 mph /  0.8 km/h 45 % 0.0 in /  0 mm 93.00 W/m2 SCT
18:54 18.4 °F /  -7.6 °C 6.3 °F /  -14.3 °C 1016.9 in /  34432.2 hPa ENE 3.7 mph /  6 km/h 2.1 mph /  3.4 km/h 45 % 0.0 in /  0 mm 91.00 W/m2 SCT
18:58 18.4 °F /  -7.6 °C 6.3 °F /  -14.3 °C 1017.0 in /  34435.6 hPa ENE 3.2 mph /  5.1 km/h 1.9 mph /  3.1 km/h 45 % 0.0 in /  0 mm 81.00 W/m2 SCT
19:04 18.4 °F /  -7.6 °C 6.2 °F /  -14.3 °C 1017.0 in /  34435.6 hPa ENE 3.7 mph /  6 km/h 1.4 mph /  2.3 km/h 45 % 0.0 in /  0 mm 74.00 W/m2 FEW
19:09 18.3 °F /  -7.6 °C 6.1 °F /  -14.4 °C 1017.0 in /  34435.6 hPa ENE 3.7 mph /  6 km/h 1.1 mph /  1.8 km/h 45 % 0.0 in /  0 mm 69.00 W/m2 FEW
19:12 18.3 °F /  -7.6 °C 6.2 °F /  -14.3 °C 1017.0 in /  34435.6 hPa ENE 3.7 mph /  6 km/h 2.3 mph /  3.7 km/h 45 % 0.0 in /  0 mm 67.00 W/m2 FEW
19:18 18.3 °F /  -7.6 °C 6.4 °F /  -14.2 °C 1017.0 in /  34435.6 hPa ENE 1.9 mph /  3.1 km/h 1.1 mph /  1.8 km/h 46 % 0.0 in /  0 mm 63.00 W/m2 FEW
19:23 18.3 °F /  -7.6 °C 6.8 °F /  -14 °C 1017.0 in /  34435.6 hPa ENE 1.9 mph /  3.1 km/h 0.6 mph /  1 km/h 47 % 0.0 in /  0 mm 60.00 W/m2 FEW
19:28 18.2 °F /  -7.7 °C 6.3 °F /  -14.3 °C 1017.1 in /  34439 hPa Calm     46 % 0.0 in /  0 mm 53.00 W/m2 FEW
19:33 18.2 °F /  -7.7 °C 6.1 °F /  -14.4 °C 1017.1 in /  34439 hPa Calm     45 % 0.0 in /  0 mm 44.00 W/m2 FEW
19:38 18.1 °F /  -7.7 °C 6.0 °F /  -14.4 °C 1017.1 in /  34439 hPa Calm     45 % 0.0 in /  0 mm 35.00 W/m2 FEW
19:43 18.1 °F /  -7.7 °C 6.0 °F /  -14.4 °C 1017.2 in /  34442.4 hPa Calm     45 % 0.0 in /  0 mm 30.00 W/m2 FEW
19:48 18.1 °F /  -7.7 °C 5.9 °F /  -14.5 °C 1017.2 in /  34442.4 hPa Calm     45 % 0.0 in /  0 mm 26.00 W/m2 FEW
19:53 18.0 °F /  -7.8 °C 5.9 °F /  -14.5 °C 1017.2 in /  34442.4 hPa Calm     45 % 0.0 in /  0 mm 21.00 W/m2 FEW
19:58 17.9 °F /  -7.8 °C 6.8 °F /  -14 °C 1017.3 in /  34445.8 hPa ESE 5.6 mph /  9 km/h 3.5 mph /  5.6 km/h 48 % 0.0 in /  0 mm 16.00 W/m2 FEW
20:04 17.8 °F /  -7.9 °C 6.9 °F /  -13.9 °C 1017.3 in /  34445.8 hPa SW 8.0 mph /  12.9 km/h 3.4 mph /  5.5 km/h 49 % 0.0 in /  0 mm 9.00 W/m2 FEW
20:08 17.8 °F /  -7.9 °C 6.6 °F /  -14.1 °C 1017.4 in /  34449.2 hPa SW 7.4 mph /  11.9 km/h 5.3 mph /  8.5 km/h 48 % 0.0 in /  0 mm 5.00 W/m2 FEW
20:13 17.7 °F /  -7.9 °C 6.9 °F /  -13.9 °C 1017.4 in /  34449.2 hPa SW 6.4 mph /  10.3 km/h 4.0 mph /  6.4 km/h 49 % 0.0 in /  0 mm 0.00 W/m2 FEW
20:19 17.7 °F /  -7.9 °C 6.8 °F /  -14 °C 1017.4 in /  34449.2 hPa SW 5.6 mph /  9 km/h 3.1 mph /  5 km/h 49 % 0.0 in /  0 mm 0.00 W/m2 FEW
20:23 17.6 °F /  -8 °C 7.1 °F /  -13.8 °C 1017.6 in /  34455.9 hPa SW 3.7 mph /  6 km/h 2.1 mph /  3.4 km/h 50 % 0.0 in /  0 mm 0.00 W/m2 FEW
20:28 17.5 °F /  -8.1 °C 7.2 °F /  -13.8 °C 1017.6 in /  34455.9 hPa SW 3.7 mph /  6 km/h 2.3 mph /  3.7 km/h 51 % 0.0 in /  0 mm 0.00 W/m2 FEW
20:34 17.3 °F /  -8.2 °C 7.7 °F /  -13.5 °C 1017.5 in /  34452.6 hPa SW 5.6 mph /  9 km/h 1.8 mph /  2.9 km/h 53 % 0.0 in /  0 mm 0.00 W/m2 FEW
20:39 17.2 °F /  -8.2 °C 7.8 °F /  -13.4 °C 1017.6 in /  34455.9 hPa SW 1.6 mph /  2.6 km/h   54 % 0.0 in /  0 mm 0.00 W/m2 FEW
20:43 17.1 °F /  -8.3 °C 8.0 °F /  -13.3 °C 1017.6 in /  34455.9 hPa Calm     55 % 0.0 in /  0 mm 0.00 W/m2 FEW
20:49 17.1 °F /  -8.3 °C 8.2 °F /  -13.2 °C 1017.6 in /  34455.9 hPa Calm     56 % 0.0 in /  0 mm 0.00 W/m2 FEW
20:54 16.9 °F /  -8.4 °C 8.1 °F /  -13.3 °C 1017.7 in /  34459.3 hPa SW 3.7 mph /  6 km/h 2.3 mph /  3.7 km/h 56 % 0.0 in /  0 mm 0.00 W/m2 FEW
20:58 16.8 °F /  -8.4 °C 7.7 °F /  -13.5 °C 1017.7 in /  34459.3 hPa SW 1.9 mph /  3.1 km/h 1.1 mph /  1.8 km/h 55 % 0.0 in /  0 mm 0.00 W/m2 FEW
21:04 16.8 °F /  -8.4 °C 7.9 °F /  -13.4 °C 1017.7 in /  34459.3 hPa SW 3.7 mph /  6 km/h 1.4 mph /  2.3 km/h 56 % 0.0 in /  0 mm 0.00 W/m2 FEW
21:09 16.7 °F /  -8.5 °C 8.2 °F /  -13.2 °C 1017.7 in /  34459.3 hPa SW 3.7 mph /  6 km/h 1.8 mph /  2.9 km/h 57 % 0.0 in /  0 mm 0.00 W/m2 FEW
21:14 16.7 °F /  -8.5 °C 8.1 °F /  -13.3 °C 1017.9 in /  34466.1 hPa SW 3.7 mph /  6 km/h 1.9 mph /  3.1 km/h 57 % 0.0 in /  0 mm 0.00 W/m2 FEW
21:19 16.6 °F /  -8.6 °C 8.3 °F /  -13.2 °C 1017.8 in /  34462.7 hPa SW 1.9 mph /  3.1 km/h   58 % 0.0 in /  0 mm 0.00 W/m2 FEW
21:24 16.5 °F /  -8.6 °C 8.2 °F /  -13.2 °C 1017.8 in /  34462.7 hPa Calm     58 % 0.0 in /  0 mm 0.00 W/m2 FEW
21:29 16.4 °F /  -8.7 °C 8.1 °F /  -13.3 °C 1017.9 in /  34466.1 hPa SW 1.9 mph /  3.1 km/h 0.2 mph /  0.3 km/h 58 % 0.0 in /  0 mm 0.00 W/m2 FEW
21:34 16.3 °F /  -8.7 °C 8.6 °F /  -13 °C 1017.9 in /  34466.1 hPa Calm     60 % 0.0 in /  0 mm 0.00 W/m2 FEW
21:39 16.2 °F /  -8.8 °C 8.4 °F /  -13.1 °C 1017.9 in /  34466.1 hPa Calm     60 % 0.0 in /  0 mm 0.00 W/m2 FEW
21:43 16.2 °F /  -8.8 °C 8.6 °F /  -13 °C 1017.9 in /  34466.1 hPa Calm     61 % 0.0 in /  0 mm 0.00 W/m2 FEW
21:48 16.1 °F /  -8.8 °C 8.8 °F /  -12.9 °C 1018.0 in /  34469.5 hPa SW 3.7 mph /  6 km/h 1.1 mph /  1.8 km/h 62 % 0.0 in /  0 mm 0.00 W/m2 FEW
21:53 16.0 °F /  -8.9 °C 8.7 °F /  -12.9 °C 1018.0 in /  34469.5 hPa SW 3.7 mph /  6 km/h 1.6 mph /  2.6 km/h 62 % 0.0 in /  0 mm 0.00 W/m2 FEW
21:58 15.9 °F /  -8.9 °C 8.9 °F /  -12.8 °C 1018.0 in /  34469.5 hPa SW 3.7 mph /  6 km/h 1.8 mph /  2.9 km/h 63 % 0.0 in /  0 mm 0.00 W/m2 FEW
22:04 15.8 °F /  -9 °C 9.1 °F /  -12.7 °C 1018.0 in /  34469.5 hPa SW 5.6 mph /  9 km/h 3.4 mph /  5.5 km/h 64 % 0.0 in /  0 mm 0.00 W/m2 FEW
22:08 15.8 °F /  -9 °C 9.0 °F /  -12.8 °C 1018.0 in /  34469.5 hPa SW 4.8 mph /  7.7 km/h 2.7 mph /  4.3 km/h 64 % 0.0 in /  0 mm 0.00 W/m2 FEW
22:13 15.7 °F /  -9.1 °C 8.9 °F /  -12.8 °C 1018.0 in /  34469.5 hPa SW 5.6 mph /  9 km/h 3.4 mph /  5.5 km/h 64 % 0.0 in /  0 mm 0.00 W/m2 FEW
22:19 15.6 °F /  -9.1 °C 9.1 °F /  -12.7 °C 1018.1 in /  34472.9 hPa SW 3.7 mph /  6 km/h 2.6 mph /  4.2 km/h 65 % 0.0 in /  0 mm 0.00 W/m2 FEW
22:23 15.6 °F /  -9.1 °C 9.0 °F /  -12.8 °C 1018.1 in /  34472.9 hPa SW 3.2 mph /  5.1 km/h 1.8 mph /  2.9 km/h 65 % 0.0 in /  0 mm 0.00 W/m2 FEW
22:28 15.5 °F /  -9.2 °C 9.2 °F /  -12.7 °C 1018.1 in /  34472.9 hPa SW 3.7 mph /  6 km/h 1.9 mph /  3.1 km/h 66 % 0.0 in /  0 mm 0.00 W/m2 FEW
22:34 15.4 °F /  -9.2 °C 9.1 °F /  -12.7 °C 1018.1 in /  34472.9 hPa SW 3.7 mph /  6 km/h 1.1 mph /  1.8 km/h 66 % 0.0 in /  0 mm 0.00 W/m2 FEW
22:38 15.3 °F /  -9.3 °C 9.0 °F /  -12.8 °C 1018.1 in /  34472.9 hPa SW 1.9 mph /  3.1 km/h 1.3 mph /  2.1 km/h 66 % 0.0 in /  0 mm 0.00 W/m2 FEW
22:43 15.3 °F /  -9.3 °C 9.0 °F /  -12.8 °C 1018.1 in /  34472.9 hPa SW 3.7 mph /  6 km/h 2.6 mph /  4.2 km/h 66 % 0.0 in /  0 mm 0.00 W/m2 FEW
22:48 15.3 °F /  -9.3 °C 8.9 °F /  -12.8 °C 1018.1 in /  34472.9 hPa WSW 5.6 mph /  9 km/h 3.1 mph /  5 km/h 66 % 0.0 in /  0 mm 0.00 W/m2 FEW
22:54 15.3 °F /  -9.3 °C 8.9 °F /  -12.8 °C 1018.1 in /  34472.9 hPa WSW 5.6 mph /  9 km/h 3.5 mph /  5.6 km/h 66 % 0.0 in /  0 mm 0.00 W/m2 FEW
22:58 15.3 °F /  -9.3 °C 8.9 °F /  -12.8 °C 1018.0 in /  34469.5 hPa WNW 4.8 mph /  7.7 km/h 2.7 mph /  4.3 km/h 66 % 0.0 in /  0 mm 0.00 W/m2 FEW
23:03 15.2 °F /  -9.3 °C 8.9 °F /  -12.8 °C 1018.1 in /  34472.9 hPa West 5.6 mph /  9 km/h 1.8 mph /  2.9 km/h 66 % 0.0 in /  0 mm 0.00 W/m2 FEW
23:09 15.2 °F /  -9.3 °C 8.8 °F /  -12.9 °C 1018.0 in /  34469.5 hPa West 5.6 mph /  9 km/h 3.2 mph /  5.1 km/h 66 % 0.0 in /  0 mm 0.00 W/m2 FEW
23:13 15.2 °F /  -9.3 °C 8.6 °F /  -13 °C 1018.0 in /  34469.5 hPa West 6.4 mph /  10.3 km/h 4.0 mph /  6.4 km/h 65 % 0.0 in /  0 mm 0.00 W/m2 FEW
23:18 15.1 °F /  -9.4 °C 8.6 °F /  -13 °C 1018.0 in /  34469.5 hPa WNW 8.0 mph /  12.9 km/h 4.8 mph /  7.7 km/h 65 % 0.0 in /  0 mm 0.00 W/m2 FEW
23:24 15.1 °F /  -9.4 °C 8.6 °F /  -13 °C 1018.0 in /  34469.5 hPa WNW 6.4 mph /  10.3 km/h 4.2 mph /  6.8 km/h 65 % 0.0 in /  0 mm 0.00 W/m2 FEW
23:29 15.1 °F /  -9.4 °C 8.6 °F /  -13 °C 1018.0 in /  34469.5 hPa WNW 5.6 mph /  9 km/h 2.6 mph /  4.2 km/h 65 % 0.0 in /  0 mm 0.00 W/m2 FEW
23:33 15.1 °F /  -9.4 °C 8.5 °F /  -13.1 °C 1018.0 in /  34469.5 hPa WNW 5.6 mph /  9 km/h 4.0 mph /  6.4 km/h 65 % 0.0 in /  0 mm 0.00 W/m2 FEW
23:39 15.0 °F /  -9.4 °C 8.7 °F /  -12.9 °C 1018.0 in /  34469.5 hPa WNW 5.6 mph /  9 km/h 2.6 mph /  4.2 km/h 66 % 0.0 in /  0 mm 0.00 W/m2 FEW
23:44 15.0 °F /  -9.4 °C 8.7 °F /  -12.9 °C 1018.0 in /  34469.5 hPa WNW 5.6 mph /  9 km/h 2.9 mph /  4.7 km/h 66 % 0.0 in /  0 mm 0.00 W/m2 FEW
23:48 14.9 °F /  -9.5 °C 8.7 °F /  -12.9 °C 1018.0 in /  34469.5 hPa WNW 5.6 mph /  9 km/h 3.4 mph /  5.5 km/h 66 % 0.0 in /  0 mm 0.00 W/m2 FEW
23:54 14.8 °F /  -9.6 °C 8.6 °F /  -13 °C 1018.0 in /  34469.5 hPa WNW 5.6 mph /  9 km/h 3.2 mph /  5.1 km/h 66 % 0.0 in /  0 mm 0.00 W/m2 FEW
23:59 14.8 °F /  -9.6 °C 8.5 °F /  -13.1 °C 1018.0 in /  34469.5 hPa WNW 5.6 mph /  9 km/h 4.0 mph /  6.4 km/h 66 % 0.0 in /  0 mm 0.00 W/m2 FEW
Juneau County Weather
Compliments of Weather Underground - 3.5 mb